Main page
METAR-TAF:

METAR-TAF

Airports :

Ämari Air Base

Ämari, Estonia

latitude: 59-15-44N, longitude: 24-13-07E, elevation: 20 m

Current weather observation

The report was made 11 minutes ago, at 10:24 UTC
Wind 13 kt from the Southwest
Temperature 10°C
Humidity 87%
Pressure 1012 hPa
Visibility 10 km or more

METAR: EEEI 131024Z AUTO 23013KT 9999 BKN010/// BKN012/// OVC017/// 10/08 Q1012

Time: 13:35 (10:35 UTC)

Forecast

The report was made 23 hours and 5 minutes ago, at 11:30 UTC
Forecast valid from 12 at 12 UTC to 13 at 12 UTC
Wind 12 kt from the West/Northwest
Visibility 10 km or more
no clouds below 1500 m and no cumulonimbus
Becoming
from 12 at 15 UTC to 12 at 17 UTC
Wind 6 kt from the Southwest
Becoming
from 12 at 21 UTC to 12 at 23 UTC
Broken clouds at a height of 500 ft
Probability 40% :
Temporary
from 13 at 01 UTC to 13 at 09 UTC
Visibility: 2000 m
Overcast at a height of 300 ft
mist,

TAF: EEEI 121130Z 1212/1312 29012KT CAVOK BECMG 1215/1217 23006KT BECMG 1221/1223 BKN005 PROB40 TEMPO 1301/1309 2000 BR OVC003

Weather observations and forecasts of more than 4000 airports (METAR and TAF reports).

The available stations are represented by yellow and red dots on the map.

Hover mouse over dot to see the name of the station.

Then click to see weather observations and forecasts.

To change the map : click on the green buttons with a black cross to zoom in, on the green button with a dash to zoom out, or on the green arrows for adjacent maps.


METAR-TAF: